Time;durP1;ratioP1;P1;durP2;ratioP2;P2;SDS_P1;SDS_P2;PMS_P1;PMS_P2;Temp;Humidity;BMP_temperature;BMP_pressure;BME280_temperature;BME280_humidity;BME280_pressure;Samples;Min_cycle;Max_cycle;Signal;HPM_P1;HPM_P2
2022/10/01 00:00:20;;;;;;;24.80;18.57;;;12.10;99.90;;;;;;5028787;28;20217;-67
2022/10/01 00:02:47;;;;;;;24.20;17.33;;;12.10;99.90;;;;;;5031366;28;20209;-66
2022/10/01 00:05:14;;;;;;;24.40;18.27;;;12.10;99.90;;;;;;5030883;28;20701;-67
2022/10/01 00:07:43;;;;;;;22.30;16.83;;;12.10;99.90;;;;;;5036182;28;20210;-67
2022/10/01 00:10:11;;;;;;;23.80;18.23;;;12.10;99.90;;;;;;5033362;28;20471;-66
2022/10/01 00:12:45;;;;;;;22.90;17.33;;;12.10;99.90;;;;;;5034828;28;20213;-66
2022/10/01 00:15:13;;;;;;;21.83;17.43;;;12.10;99.90;;;;;;5032420;28;20198;-67
2022/10/01 00:17:39;;;;;;;23.80;17.60;;;12.10;99.90;;;;;;5026178;28;20242;-66
2022/10/01 00:20:07;;;;;;;24.97;18.57;;;12.10;99.90;;;;;;5025508;28;20210;-66
2022/10/01 00:22:36;;;;;;;22.27;17.10;;;12.00;99.90;;;;;;5027074;28;20308;-66
2022/10/01 00:25:03;;;;;;;23.73;17.10;;;12.00;99.90;;;;;;5033330;28;20710;-66
2022/10/01 00:27:30;;;;;;;23.07;17.87;;;12.00;99.90;;;;;;5028158;28;20206;-67
2022/10/01 00:29:58;;;;;;;22.00;17.27;;;12.00;99.90;;;;;;5023602;28;20289;-66
2022/10/01 00:32:25;;;;;;;24.23;17.77;;;12.00;99.90;;;;;;5033882;28;20735;-66
2022/10/01 00:34:52;;;;;;;20.90;17.37;;;11.90;99.90;;;;;;5027345;28;20203;-67
2022/10/01 00:37:21;;;;;;;21.50;17.07;;;12.00;99.90;;;;;;5031890;28;20729;-66
2022/10/01 00:39:47;;;;;;;22.13;16.93;;;12.00;99.90;;;;;;5037592;28;20202;-67
2022/10/01 00:42:19;;;;;;;22.07;17.03;;;11.90;99.90;;;;;;5038542;28;20198;-67
2022/10/01 00:44:46;;;;;;;20.47;16.13;;;11.90;99.90;;;;;;5030747;28;20214;-67
2022/10/01 00:47:21;;;;;;;23.30;17.53;;;11.90;99.90;;;;;;5032018;28;20210;-66
2022/10/01 00:49:50;;;;;;;26.80;18.27;;;11.90;99.90;;;;;;5024970;28;20203;-66
2022/10/01 00:52:21;;;;;;;25.53;18.47;;;11.90;99.90;;;;;;5029578;28;20199;-66
2022/10/01 00:54:52;;;;;;;24.73;16.67;;;11.90;99.90;;;;;;5027350;28;20200;-67
2022/10/01 00:57:21;;;;;;;23.60;17.10;;;11.90;99.90;;;;;;5025616;28;20203;-68
2022/10/01 00:59:50;;;;;;;26.73;17.53;;;11.90;99.90;;;;;;5032604;28;20246;-67
2022/10/01 01:02:18;;;;;;;28.57;17.80;;;11.90;99.90;;;;;;5035726;28;20211;-67
2022/10/01 01:04:45;;;;;;;29.47;18.17;;;11.80;99.90;;;;;;5034432;28;20210;-66
2022/10/01 01:07:12;;;;;;;26.67;18.87;;;11.90;99.90;;;;;;5024228;28;20317;-67
2022/10/01 01:09:43;;;;;;;29.63;19.67;;;11.90;99.90;;;;;;5018137;28;20219;-67
2022/10/01 01:12:21;;;;;;;24.13;17.67;;;11.80;99.90;;;;;;5021304;28;20218;-68
2022/10/01 01:14:56;;;;;;;25.33;17.50;;;11.80;99.90;;;;;;5030322;28;20199;-68
2022/10/01 01:17:30;;;;;;;23.30;17.43;;;11.80;99.90;;;;;;5023838;28;20237;-67
2022/10/01 01:20:13;;;;;;;24.00;18.30;;;11.80;99.90;;;;;;5023307;28;20199;-67
2022/10/01 01:22:48;;;;;;;21.70;17.13;;;11.80;99.90;;;;;;5034260;28;20233;-68
2022/10/01 01:25:18;;;;;;;25.23;16.33;;;11.70;99.90;;;;;;5034190;28;20202;-68
2022/10/01 01:27:50;;;;;;;23.97;17.50;;;11.80;99.90;;;;;;5034993;28;20210;-67
2022/10/01 01:30:19;;;;;;;23.03;16.50;;;11.80;99.90;;;;;;5029372;28;20199;-67
2022/10/01 01:32:51;;;;;;;21.00;15.87;;;11.80;99.90;;;;;;5017430;28;20213;-67
2022/10/01 01:35:21;;;;;;;19.73;16.47;;;11.80;99.90;;;;;;5029435;28;20202;-66
2022/10/01 01:37:52;;;;;;;24.67;18.53;;;11.80;99.90;;;;;;5027198;28;20202;-67
2022/10/01 01:40:21;;;;;;;25.20;19.07;;;11.80;99.90;;;;;;5030832;28;20616;-68
2022/10/01 01:42:49;;;;;;;26.17;18.77;;;11.80;99.90;;;;;;5032360;28;20230;-68
2022/10/01 01:45:22;;;;;;;24.50;18.60;;;11.80;99.90;;;;;;5031425;28;20237;-67
2022/10/01 01:47:54;;;;;;;22.10;17.90;;;11.80;99.90;;;;;;5028845;28;20566;-66
2022/10/01 01:50:22;;;;;;;24.30;19.27;;;11.80;99.90;;;;;;5027941;28;20639;-66
2022/10/01 01:52:49;;;;;;;22.90;18.73;;;11.80;99.90;;;;;;5024995;28;20199;-66
2022/10/01 01:55:16;;;;;;;23.83;19.57;;;11.80;99.90;;;;;;5032505;28;20211;-67
2022/10/01 01:57:44;;;;;;;25.83;20.27;;;11.70;99.90;;;;;;5027461;28;20203;-67
2022/10/01 02:00:13;;;;;;;28.77;20.17;;;11.70;99.90;;;;;;5017506;28;20218;-67
2022/10/01 02:02:45;;;;;;;29.93;22.73;;;11.70;99.90;;;;;;5026630;28;20207;-68
2022/10/01 02:05:15;;;;;;;28.77;21.10;;;11.70;99.90;;;;;;5027306;28;20208;-67
2022/10/01 02:08:25;;;;;;;25.40;19.70;;;11.70;99.90;;;;;;5025714;28;20241;-68
2022/10/01 02:11:10;;;;;;;27.00;19.87;;;11.70;99.90;;;;;;5023080;28;20237;-68
2022/10/01 02:13:48;;;;;;;26.20;21.10;;;11.70;99.90;;;;;;5026774;28;20203;-67
2022/10/01 02:16:24;;;;;;;27.80;21.93;;;11.70;99.90;;;;;;5027686;28;20206;-67
2022/10/01 02:18:58;;;;;;;28.93;23.50;;;11.70;99.90;;;;;;5026892;28;20210;-66
2022/10/01 02:21:31;;;;;;;31.67;22.90;;;11.60;99.90;;;;;;5027660;28;20204;-67
2022/10/01 02:24:03;;;;;;;28.03;21.77;;;11.70;99.90;;;;;;5027764;28;20730;-67
2022/10/01 02:26:32;;;;;;;28.50;21.80;;;11.70;99.90;;;;;;5029472;28;20233;-67
2022/10/01 02:29:03;;;;;;;30.50;22.07;;;11.60;99.90;;;;;;5027786;28;20679;-67
2022/10/01 02:31:32;;;;;;;28.07;22.53;;;11.60;99.90;;;;;;5028215;28;20556;-66
2022/10/01 02:34:02;;;;;;;27.43;21.90;;;11.60;99.90;;;;;;5027544;28;20225;-67
2022/10/01 02:36:30;;;;;;;29.37;23.30;;;11.60;99.90;;;;;;5028911;28;20222;-66
2022/10/01 02:39:00;;;;;;;29.60;21.93;;;11.50;99.90;;;;;;5029653;28;20237;-67
2022/10/01 02:41:31;;;;;;;30.20;22.70;;;11.50;99.90;;;;;;5029653;28;20790;-68
2022/10/01 02:44:04;;;;;;;29.20;21.37;;;11.50;99.90;;;;;;5028547;28;20345;-68
2022/10/01 02:46:38;;;;;;;30.70;22.50;;;11.50;99.90;;;;;;5021978;28;20194;-68
2022/10/01 02:49:06;;;;;;;28.87;22.73;;;11.50;99.90;;;;;;5028691;28;20194;-67
2022/10/01 02:51:39;;;;;;;28.00;21.90;;;11.50;99.90;;;;;;5029563;28;20218;-66
2022/10/01 02:54:11;;;;;;;27.30;21.67;;;11.40;99.90;;;;;;5027330;28;20573;-67
2022/10/01 02:59:24;;;;;;;28.00;21.77;;;11.40;99.90;;;;;;5032562;28;20225;-68
2022/10/01 03:01:51;;;;;;;28.57;22.30;;;11.50;99.90;;;;;;5025818;28;20206;-67
2022/10/01 03:04:19;;;;;;;26.23;21.17;;;11.50;99.90;;;;;;5030416;28;20225;-67
2022/10/01 03:06:45;;;;;;;28.30;22.00;;;11.40;99.90;;;;;;5015752;28;20229;-66
2022/10/01 03:09:13;;;;;;;28.03;21.90;;;11.40;99.90;;;;;;5026803;28;20218;-67
2022/10/01 03:11:40;;;;;;;25.37;20.00;;;11.40;99.90;;;;;;5025885;28;20664;-68
2022/10/01 03:14:06;;;;;;;29.87;20.57;;;11.50;99.90;;;;;;5029361;28;20237;-68
2022/10/01 03:16:33;;;;;;;28.43;21.23;;;11.50;99.90;;;;;;5030763;28;20211;-68
2022/10/01 03:19:00;;;;;;;26.77;20.67;;;11.50;99.90;;;;;;5023338;28;20546;-67
2022/10/01 03:21:28;;;;;;;24.93;20.30;;;11.50;99.90;;;;;;5020256;28;20214;-68
2022/10/01 03:23:55;;;;;;;26.17;20.00;;;11.50;99.90;;;;;;5024955;28;20244;-67
2022/10/01 03:26:22;;;;;;;24.97;19.83;;;11.40;99.90;;;;;;5028444;28;20210;-68
2022/10/01 03:28:48;;;;;;;26.53;21.40;;;11.40;99.90;;;;;;5030015;28;20203;-68
2022/10/01 03:31:15;;;;;;;25.93;19.93;;;11.40;99.90;;;;;;5021348;28;20194;-68
2022/10/01 03:33:42;;;;;;;27.63;20.23;;;11.40;99.90;;;;;;5026732;28;20569;-68
2022/10/01 03:36:08;;;;;;;26.63;21.33;;;11.40;99.90;;;;;;5026838;28;20206;-68
2022/10/01 03:38:36;;;;;;;27.37;20.87;;;11.40;99.90;;;;;;5018365;28;20270;-68
2022/10/01 03:41:03;;;;;;;25.30;20.60;;;11.40;99.90;;;;;;5037651;28;20636;-68
2022/10/01 03:43:30;;;;;;;24.57;19.87;;;11.40;99.90;;;;;;5026672;28;20209;-67
2022/10/01 03:45:57;;;;;;;25.33;19.33;;;11.40;99.90;;;;;;5026218;28;20211;-67
2022/10/01 03:48:24;;;;;;;23.07;18.13;;;11.30;99.90;;;;;;5018676;28;20206;-68
2022/10/01 03:50:54;;;;;;;25.23;19.10;;;11.30;99.90;;;;;;5026394;28;20663;-68
2022/10/01 03:53:21;;;;;;;24.23;18.43;;;11.30;99.90;;;;;;5020011;28;20205;-68
2022/10/01 03:55:49;;;;;;;25.13;18.93;;;11.30;99.90;;;;;;5022262;28;20211;-67
2022/10/01 03:58:17;;;;;;;23.77;19.50;;;11.30;99.90;;;;;;5031215;28;20214;-67
2022/10/01 04:00:45;;;;;;;24.17;19.17;;;11.20;99.90;;;;;;5027684;28;20288;-67
2022/10/01 04:03:12;;;;;;;23.27;18.30;;;11.20;99.90;;;;;;5024744;28;20215;-67
2022/10/01 04:05:38;;;;;;;24.23;18.77;;;11.20;99.90;;;;;;5024121;28;20206;-67
2022/10/01 04:08:05;;;;;;;24.60;20.00;;;11.20;99.90;;;;;;5020219;28;20206;-67
2022/10/01 04:10:32;;;;;;;23.93;19.50;;;11.10;99.90;;;;;;5018347;28;20589;-68
2022/10/01 04:13:00;;;;;;;25.43;19.03;;;11.10;99.90;;;;;;5028329;28;20210;-67
2022/10/01 04:15:27;;;;;;;25.90;19.60;;;11.00;99.90;;;;;;5033799;28;21645;-68
2022/10/01 04:17:54;;;;;;;24.60;19.53;;;11.00;99.90;;;;;;5029393;28;20587;-68
2022/10/01 04:20:21;;;;;;;26.47;19.83;;;10.90;99.90;;;;;;5029793;28;20705;-69
2022/10/01 04:22:48;;;;;;;24.03;20.33;;;10.90;99.90;;;;;;5012968;28;20672;-68
2022/10/01 04:25:14;;;;;;;25.63;20.13;;;10.90;99.90;;;;;;5030552;28;20633;-68
2022/10/01 04:27:43;;;;;;;27.97;20.07;;;10.80;99.90;;;;;;5024516;28;20210;-68
2022/10/01 04:30:11;;;;;;;27.87;21.40;;;10.80;99.90;;;;;;5015067;28;20571;-68
2022/10/01 04:32:38;;;;;;;23.73;19.13;;;10.80;99.90;;;;;;5022109;28;20583;-67
2022/10/01 04:35:10;;;;;;;26.80;20.43;;;10.80;99.90;;;;;;5012216;28;20207;-67
2022/10/01 04:37:36;;;;;;;26.67;20.07;;;10.70;99.90;;;;;;5024284;28;20624;-68
2022/10/01 04:40:04;;;;;;;24.13;19.67;;;10.70;99.90;;;;;;5029675;28;20753;-68
2022/10/01 04:42:31;;;;;;;25.80;19.40;;;10.70;99.90;;;;;;5018112;28;20206;-68
2022/10/01 04:44:58;;;;;;;25.83;19.47;;;10.60;99.90;;;;;;5026490;28;20215;-68
2022/10/01 04:47:26;;;;;;;29.03;19.67;;;10.60;99.90;;;;;;5030836;28;20209;-68
2022/10/01 04:49:52;;;;;;;23.70;19.10;;;10.60;99.90;;;;;;5023753;28;20214;-69
2022/10/01 04:52:19;;;;;;;24.97;20.73;;;10.60;99.90;;;;;;5030930;28;20203;-67
2022/10/01 04:54:46;;;;;;;24.73;19.17;;;10.60;99.90;;;;;;5028513;28;20203;-68
2022/10/01 04:57:13;;;;;;;28.50;20.63;;;10.60;99.90;;;;;;5021230;28;20686;-68
2022/10/01 04:59:39;;;;;;;27.30;20.53;;;10.50;99.90;;;;;;5034711;28;20227;-68
2022/10/01 05:02:06;;;;;;;28.47;21.27;;;10.50;99.90;;;;;;5027917;28;20545;-67
2022/10/01 05:04:34;;;;;;;26.10;20.50;;;10.50;99.90;;;;;;5033493;28;20214;-68
2022/10/01 05:07:01;;;;;;;28.43;20.43;;;10.50;99.90;;;;;;5020084;28;20567;-68
2022/10/01 05:09:27;;;;;;;29.47;21.67;;;10.50;99.90;;;;;;5033079;28;20202;-68
2022/10/01 05:11:54;;;;;;;27.07;21.07;;;10.50;99.90;;;;;;5029809;28;20627;-68
2022/10/01 05:14:21;;;;;;;24.63;19.23;;;10.50;99.90;;;;;;5033859;28;20206;-68
2022/10/01 05:16:48;;;;;;;23.80;19.90;;;10.50;99.90;;;;;;5033023;28;20213;-68
2022/10/01 05:19:15;;;;;;;27.67;21.07;;;10.50;99.90;;;;;;5038977;28;20231;-67
2022/10/01 05:21:43;;;;;;;28.30;21.13;;;10.50;99.90;;;;;;5033200;28;20207;-67
2022/10/01 05:24:09;;;;;;;26.20;21.67;;;10.50;99.90;;;;;;5022320;28;20598;-67
2022/10/01 05:26:38;;;;;;;25.90;21.07;;;10.50;99.90;;;;;;5032324;28;20810;-67
2022/10/01 05:29:05;;;;;;;28.10;21.10;;;10.40;99.90;;;;;;5020363;28;20260;-68
2022/10/01 05:31:33;;;;;;;27.40;21.90;;;10.50;99.90;;;;;;5020477;28;20204;-67
2022/10/01 05:33:59;;;;;;;28.80;21.03;;;10.50;99.90;;;;;;5023538;28;20205;-67
2022/10/01 05:36:26;;;;;;;27.90;22.33;;;10.50;99.90;;;;;;5028473;28;20220;-67
2022/10/01 05:38:54;;;;;;;31.30;22.73;;;10.40;99.90;;;;;;5029796;28;20469;-68
2022/10/01 05:41:21;;;;;;;30.20;23.73;;;10.50;99.90;;;;;;5039615;28;20570;-69
2022/10/01 05:43:48;;;;;;;27.43;21.90;;;10.50;99.90;;;;;;5021745;28;20211;-68
2022/10/01 05:46:15;;;;;;;29.53;23.07;;;10.60;99.90;;;;;;5027822;28;20572;-68
2022/10/01 05:48:42;;;;;;;27.50;21.73;;;10.70;99.90;;;;;;5029245;28;20210;-68
2022/10/01 05:51:08;;;;;;;28.53;22.67;;;10.70;99.90;;;;;;5033506;28;20199;-69
2022/10/01 05:53:37;;;;;;;28.70;23.00;;;10.80;99.90;;;;;;5028630;28;20839;-68
2022/10/01 05:56:05;;;;;;;32.00;23.93;;;10.90;99.90;;;;;;5029212;28;20729;-68
2022/10/01 05:58:33;;;;;;;30.03;22.13;;;11.10;99.90;;;;;;5019784;28;20297;-68
2022/10/01 06:00:59;;;;;;;31.17;24.07;;;11.20;99.90;;;;;;5029235;28;20226;-68
2022/10/01 06:03:28;;;;;;;28.77;22.47;;;11.20;99.90;;;;;;5024089;28;20215;-69
2022/10/01 06:05:55;;;;;;;30.10;23.67;;;11.30;99.90;;;;;;5027582;28;20242;-68
2022/10/01 06:08:22;;;;;;;31.77;23.80;;;11.40;99.90;;;;;;5020089;28;20653;-68
2022/10/01 06:10:49;;;;;;;32.03;23.13;;;11.50;99.90;;;;;;5031593;28;20198;-69
2022/10/01 06:13:17;;;;;;;26.67;22.83;;;11.50;99.90;;;;;;5031378;28;20656;-68
2022/10/01 06:15:45;;;;;;;31.20;23.27;;;11.60;99.90;;;;;;5028554;28;20207;-68
2022/10/01 06:18:13;;;;;;;29.93;24.17;;;11.70;99.90;;;;;;5029511;28;20206;-68
2022/10/01 06:20:40;;;;;;;29.70;23.63;;;11.70;99.90;;;;;;5019304;28;20277;-68
2022/10/01 06:23:11;;;;;;;31.93;23.33;;;11.80;99.90;;;;;;5020790;28;20273;-68
2022/10/01 06:25:38;;;;;;;28.67;21.83;;;11.90;99.90;;;;;;5025604;28;20207;-68
2022/10/01 06:28:07;;;;;;;28.20;20.33;;;12.10;99.90;;;;;;5026361;28;20210;-68
2022/10/01 06:30:37;;;;;;;27.97;19.57;;;12.10;99.90;;;;;;5018683;28;20214;-68
2022/10/01 06:33:06;;;;;;;23.73;18.93;;;12.20;99.90;;;;;;5032077;28;20203;-69
2022/10/01 06:35:34;;;;;;;23.93;19.53;;;12.20;99.90;;;;;;5027787;28;20210;-69
2022/10/01 06:38:01;;;;;;;22.57;18.50;;;12.30;99.90;;;;;;5032894;28;20211;-69
2022/10/01 06:40:29;;;;;;;22.70;18.57;;;12.30;99.90;;;;;;5037521;28;20214;-68
2022/10/01 06:42:57;;;;;;;23.57;19.33;;;12.30;99.90;;;;;;5028895;28;20253;-67
2022/10/01 06:45:24;;;;;;;21.37;18.00;;;12.40;99.90;;;;;;5019638;28;20675;-72
2022/10/01 06:47:55;;;;;;;21.80;18.40;;;12.40;99.90;;;;;;5029470;28;20198;-71
2022/10/01 06:50:22;;;;;;;22.87;18.03;;;12.40;99.90;;;;;;5035275;28;20206;-73
2022/10/01 06:52:49;;;;;;;21.50;17.17;;;12.50;99.90;;;;;;5035179;28;20277;-73
2022/10/01 06:55:17;;;;;;;23.50;19.37;;;12.50;99.90;;;;;;5035878;28;20214;-74
2022/10/01 06:57:43;;;;;;;24.93;19.90;;;12.60;99.90;;;;;;5031814;28;20198;-75
2022/10/01 07:00:12;;;;;;;20.87;17.77;;;12.70;99.90;;;;;;5025848;28;20601;-73
2022/10/01 07:02:39;;;;;;;24.83;19.97;;;12.80;99.90;;;;;;5024646;28;20207;-71
2022/10/01 07:05:08;;;;;;;26.27;19.50;;;12.90;99.90;;;;;;5026882;28;20211;-72
2022/10/01 07:07:37;;;;;;;23.00;19.20;;;13.00;99.90;;;;;;5028649;28;20204;-72
2022/10/01 07:10:05;;;;;;;22.73;19.00;;;13.10;99.90;;;;;;5030430;28;20836;-73
2022/10/01 07:12:33;;;;;;;24.13;19.23;;;13.30;99.90;;;;;;5031575;28;20297;-73
2022/10/01 07:14:59;;;;;;;27.23;19.23;;;13.40;99.90;;;;;;5032350;28;20220;-74
2022/10/01 07:17:26;;;;;;;24.27;19.80;;;13.50;99.90;;;;;;5025012;28;20391;-71
2022/10/01 07:19:53;;;;;;;24.07;18.73;;;13.60;99.90;;;;;;5024572;28;20600;-72
2022/10/01 07:22:23;;;;;;;23.87;19.50;;;13.70;99.90;;;;;;5028930;28;20222;-69
2022/10/01 07:24:50;;;;;;;22.13;19.13;;;13.80;99.90;;;;;;5031196;28;20711;-72
2022/10/01 07:27:17;;;;;;;26.60;19.00;;;13.80;99.90;;;;;;5034572;28;20605;-74
2022/10/01 07:29:44;;;;;;;21.20;17.30;;;13.90;99.90;;;;;;5026918;28;20214;-70
2022/10/01 07:32:11;;;;;;;23.13;17.03;;;14.00;99.90;;;;;;5025167;28;20207;-73
2022/10/01 07:34:39;;;;;;;19.50;16.70;;;14.10;99.90;;;;;;5029456;28;20210;-73
2022/10/01 07:37:07;;;;;;;18.93;15.70;;;14.10;99.90;;;;;;5031514;28;20265;-71
2022/10/01 07:39:35;;;;;;;19.23;16.23;;;14.20;99.90;;;;;;5032289;28;20205;-71
2022/10/01 07:42:02;;;;;;;21.83;16.40;;;14.20;99.90;;;;;;5023500;28;20213;-71
2022/10/01 07:44:29;;;;;;;19.50;16.70;;;14.40;99.90;;;;;;5017911;28;20218;-73
2022/10/01 07:46:56;;;;;;;18.93;16.27;;;14.50;99.90;;;;;;5031488;28;20198;-72
2022/10/01 07:49:24;;;;;;;20.87;16.40;;;14.70;99.90;;;;;;5021004;28;20226;-74
2022/10/01 07:51:51;;;;;;;21.27;18.33;;;14.90;99.90;;;;;;5029063;28;20209;-72
2022/10/01 07:54:19;;;;;;;20.93;17.67;;;15.00;99.90;;;;;;5025641;28;20309;-74
2022/10/01 07:56:47;;;;;;;18.73;14.37;;;15.10;99.90;;;;;;5024546;28;20221;-73
2022/10/01 07:59:15;;;;;;;24.87;18.43;;;15.20;99.90;;;;;;5016834;28;20233;-75
2022/10/01 08:01:42;;;;;;;21.10;17.47;;;15.20;99.90;;;;;;5024258;28;20258;-76
2022/10/01 08:06:50;;;;;;;21.33;16.53;;;15.50;99.90;;;;;;5019918;28;20203;-76
2022/10/01 08:09:17;;;;;;;18.20;14.37;;;15.80;99.90;;;;;;5027262;28;20272;-75
2022/10/01 08:11:44;;;;;;;15.30;13.70;;;16.00;99.90;;;;;;5030243;28;20575;-68
2022/10/01 08:14:12;;;;;;;16.15;14.45;;;16.20;99.90;;;;;;5026457;28;20226;-76
2022/10/01 08:16:40;;;;;;;17.27;15.13;;;16.50;99.90;;;;;;5026692;28;20209;-74
2022/10/01 08:19:07;;;;;;;18.55;14.68;;;16.60;99.90;;;;;;5027477;28;20301;-75
2022/10/01 08:21:35;;;;;;;19.30;15.18;;;16.60;99.90;;;;;;5020818;28;20684;-76
2022/10/01 08:24:02;;;;;;;20.85;16.45;;;16.70;99.90;;;;;;5020560;28;20231;-74
2022/10/01 08:26:29;;;;;;;21.23;17.15;;;16.80;99.90;;;;;;5028050;28;20202;-75
2022/10/01 08:28:56;;;;;;;20.83;16.98;;;16.70;99.90;;;;;;5030923;28;20214;-74
2022/10/01 08:31:24;;;;;;;19.85;16.52;;;16.60;99.90;;;;;;5022226;28;20211;-73
2022/10/01 08:33:52;;;;;;;16.60;14.02;;;16.60;99.90;;;;;;5029577;28;20203;-74
2022/10/01 08:36:19;;;;;;;18.15;14.80;;;16.70;99.90;;;;;;5028827;28;20207;-77
2022/10/01 08:38:47;;;;;;;16.48;13.95;;;16.70;99.90;;;;;;5020533;28;20234;-75
2022/10/01 08:41:31;;;;;;;16.07;14.13;;;16.80;99.90;;;;;;5033038;28;20230;-74
2022/10/01 08:43:59;;;;;;;16.67;14.25;;;17.00;99.90;;;;;;5026115;28;20218;-75
2022/10/01 08:46:33;;;;;;;12.93;11.27;;;17.00;99.90;;;;;;5031068;28;20240;-75
2022/10/01 08:49:06;;;;;;;14.30;10.95;;;17.00;99.90;;;;;;5033909;28;20201;-75
2022/10/01 08:51:40;;;;;;;13.45;11.80;;;17.10;99.90;;;;;;5023324;28;20599;-76
2022/10/01 08:54:17;;;;;;;13.68;11.63;;;17.00;99.90;;;;;;5021183;28;20206;-74
2022/10/01 08:56:46;;;;;;;13.98;10.55;;;16.90;99.90;;;;;;5015013;28;20302;-74
2022/10/01 08:59:22;;;;;;;14.73;12.15;;;16.70;99.90;;;;;;5021705;28;20643;-75
2022/10/01 09:01:50;;;;;;;12.48;10.73;;;16.50;99.90;;;;;;5025078;28;20215;-74
2022/10/01 09:04:17;;;;;;;11.70;10.43;;;16.30;99.90;;;;;;5028676;28;20671;-75
2022/10/01 09:06:49;;;;;;;12.27;10.55;;;16.10;99.90;;;;;;5026271;28;20206;-76
2022/10/01 09:09:32;;;;;;;12.88;10.38;;;16.00;99.90;;;;;;5031904;28;20217;-72
2022/10/01 09:12:10;;;;;;;12.37;10.90;;;16.00;99.90;;;;;;5031788;28;20202;-72
2022/10/01 09:14:53;;;;;;;14.53;11.33;;;15.80;99.90;;;;;;5028012;28;20202;-71
2022/10/01 09:17:34;;;;;;;13.40;11.67;;;15.80;99.90;;;;;;5032464;28;20206;-74
2022/10/01 09:20:11;;;;;;;13.93;10.87;;;15.70;99.90;;;;;;5026994;28;20225;-74
2022/10/01 09:22:40;;;;;;;13.80;12.15;;;15.50;99.90;;;;;;5026914;28;20974;-74
2022/10/01 09:25:13;;;;;;;13.80;10.57;;;15.40;99.90;;;;;;5027333;28;20537;-74
2022/10/01 09:27:41;;;;;;;13.13;11.82;;;15.20;99.90;;;;;;5025737;28;20793;-75
2022/10/01 09:30:13;;;;;;;13.67;11.40;;;15.00;99.90;;;;;;5031163;28;20268;-76
2022/10/01 09:32:45;;;;;;;14.73;11.40;;;14.80;99.90;;;;;;5027690;28;20201;-77
2022/10/01 09:35:23;;;;;;;15.37;11.83;;;14.70;99.90;;;;;;5028536;28;20207;-74
2022/10/01 09:37:58;;;;;;;13.97;11.53;;;14.50;99.90;;;;;;5027579;28;20210;-73
2022/10/01 09:40:34;;;;;;;15.93;12.07;;;14.40;99.90;;;;;;5031673;28;20198;-70
2022/10/01 09:43:00;;;;;;;17.67;13.13;;;14.40;99.90;;;;;;5031465;28;20206;-73
2022/10/01 09:45:27;;;;;;;16.63;12.20;;;14.40;99.90;;;;;;5031368;28;20803;-71
2022/10/01 09:48:04;;;;;;;16.87;12.07;;;14.30;99.90;;;;;;5029020;28;20242;-71
2022/10/01 09:50:38;;;;;;;14.63;11.50;;;14.30;99.90;;;;;;5021794;28;20256;-69
2022/10/01 09:53:10;;;;;;;23.33;13.60;;;14.20;99.90;;;;;;5028212;28;20207;-70
2022/10/01 09:55:40;;;;;;;14.67;11.30;;;14.20;99.90;;;;;;5030538;28;20683;-74
2022/10/01 09:58:12;;;;;;;17.07;12.80;;;14.10;99.90;;;;;;5043494;28;20229;-73
2022/10/01 10:00:43;;;;;;;15.33;11.80;;;14.00;99.90;;;;;;5030972;28;20210;-75
2022/10/01 10:03:22;;;;;;;16.23;12.83;;;14.00;99.90;;;;;;5031717;28;20659;-74
2022/10/01 10:05:49;;;;;;;15.90;12.50;;;14.00;99.90;;;;;;5030484;28;20195;-73
2022/10/01 10:08:23;;;;;;;15.33;12.20;;;14.00;99.90;;;;;;5030074;28;20300;-72
2022/10/01 10:10:51;;;;;;;15.63;12.93;;;14.00;99.90;;;;;;5030275;28;20683;-72
2022/10/01 10:13:25;;;;;;;17.80;12.97;;;14.00;99.90;;;;;;5028006;28;20217;-69
2022/10/01 10:15:56;;;;;;;16.23;12.33;;;14.00;99.90;;;;;;5020973;28;20206;-73
2022/10/01 10:18:29;;;;;;;13.97;11.53;;;13.90;99.90;;;;;;5031416;28;20203;-73
2022/10/01 10:20:57;;;;;;;13.83;11.07;;;13.90;99.90;;;;;;5030509;28;20223;-74
2022/10/01 10:23:27;;;;;;;15.23;11.80;;;13.90;99.90;;;;;;5026543;28;20269;-74
2022/10/01 10:25:56;;;;;;;16.90;12.67;;;13.80;99.90;;;;;;5027653;28;20209;-71
2022/10/01 10:28:24;;;;;;;14.97;11.43;;;13.90;99.90;;;;;;5027764;28;20233;-70
2022/10/01 10:30:52;;;;;;;14.10;11.47;;;13.90;99.90;;;;;;5028787;28;20202;-69
2022/10/01 10:33:20;;;;;;;16.40;11.70;;;13.90;99.90;;;;;;5027673;28;20206;-70
2022/10/01 10:35:57;;;;;;;14.50;11.47;;;13.90;99.90;;;;;;5027605;28;20311;-70
2022/10/01 10:38:27;;;;;;;18.37;12.90;;;13.90;99.90;;;;;;5032700;28;20752;-70
2022/10/01 10:40:53;;;;;;;19.40;14.27;;;13.90;99.90;;;;;;5038121;28;20259;-70
2022/10/01 10:43:23;;;;;;;16.90;12.20;;;13.90;99.90;;;;;;5029720;28;20217;-70
2022/10/01 10:45:54;;;;;;;15.00;12.43;;;13.90;99.90;;;;;;5032733;28;20292;-70
2022/10/01 10:48:24;;;;;;;17.33;12.80;;;13.90;99.90;;;;;;5025142;28;20553;-70
2022/10/01 10:50:59;;;;;;;15.10;12.03;;;13.90;99.90;;;;;;5027943;28;20203;-70
2022/10/01 10:53:27;;;;;;;17.07;12.07;;;13.90;99.90;;;;;;5029742;28;20209;-71
2022/10/01 10:55:57;;;;;;;15.57;13.00;;;13.90;99.90;;;;;;5039610;28;20313;-70
2022/10/01 10:58:26;;;;;;;16.83;13.37;;;13.90;99.90;;;;;;5026774;28;20207;-70
2022/10/01 11:00:55;;;;;;;15.27;12.57;;;13.90;99.90;;;;;;5032040;28;20207;-69
2022/10/01 11:03:26;;;;;;;16.20;12.67;;;14.00;99.90;;;;;;5029325;28;20255;-71
2022/10/01 11:05:57;;;;;;;15.07;11.40;;;14.00;99.90;;;;;;5041933;28;20214;-72
2022/10/01 11:08:27;;;;;;;12.80;10.60;;;13.90;99.90;;;;;;5032994;28;20225;-72
2022/10/01 11:11:07;;;;;;;13.70;10.80;;;13.90;99.90;;;;;;5027068;28;20230;-72
2022/10/01 11:14:02;;;;;;;12.70;11.27;;;13.90;99.90;;;;;;5032855;28;20206;-70
2022/10/01 11:16:40;;;;;;;13.50;12.07;;;13.90;99.90;;;;;;5024121;28;20594;-70
2022/10/01 11:19:31;;;;;;;13.90;12.23;;;13.90;99.90;;;;;;5018457;28;20582;-68
2022/10/01 11:22:12;;;;;;;15.40;12.00;;;14.10;99.90;;;;;;5023110;28;20230;-70
2022/10/01 11:25:05;;;;;;;17.87;13.10;;;14.30;99.90;;;;;;5027074;28;20714;-69
2022/10/01 11:27:42;;;;;;;16.30;12.77;;;14.50;99.90;;;;;;5013805;28;20624;-71
2022/10/01 11:30:14;;;;;;;13.90;11.90;;;14.70;99.90;;;;;;5021278;28;20190;-69
2022/10/01 11:32:49;;;;;;;15.53;11.63;;;14.80;99.90;;;;;;5022784;28;20203;-71
2022/10/01 11:35:29;;;;;;;14.43;10.57;;;14.90;99.90;;;;;;5012708;28;20600;-70
2022/10/01 11:38:25;;;;;;;11.80;10.00;;;15.10;99.90;;;;;;5024365;28;20199;-71
2022/10/01 11:40:58;;;;;;;11.60;9.43;;;15.40;99.90;;;;;;5036084;28;20203;-71
2022/10/01 11:43:31;;;;;;;10.80;8.68;;;17.20;99.90;;;;;;5023658;28;20207;-70
2022/10/01 11:46:03;;;;;;;14.82;11.65;;;20.80;99.90;;;;;;5027177;28;20675;-68
2022/10/01 11:48:35;;;;;;;9.25;8.35;;;25.30;99.90;;;;;;5027458;28;20198;-70
2022/10/01 11:51:08;;;;;;;10.20;9.20;;;27.30;81.20;;;;;;5028072;28;20209;-70
2022/10/01 11:53:43;;;;;;;10.05;9.05;;;26.80;72.70;;;;;;5016336;28;20211;-70
2022/10/01 11:59:05;;;;;;;9.18;8.20;;;24.20;73.90;;;;;;5028679;28;20562;-72
2022/10/01 12:01:38;;;;;;;7.45;6.75;;;22.90;75.90;;;;;;5023415;28;20743;-71
2022/10/01 12:04:15;;;;;;;7.90;7.20;;;22.50;81.60;;;;;;5023303;28;20206;-70
2022/10/01 12:06:51;;;;;;;9.70;7.82;;;21.90;78.10;;;;;;5019820;28;20201;-70
2022/10/01 12:09:26;;;;;;;8.23;7.43;;;21.20;80.00;;;;;;5025889;28;20725;-70
2022/10/01 12:12:00;;;;;;;9.18;7.70;;;20.60;83.00;;;;;;5029732;28;20210;-69
2022/10/01 12:14:32;;;;;;;8.95;8.05;;;20.60;93.40;;;;;;5033202;28;20612;-69
2022/10/01 12:17:05;;;;;;;9.80;7.80;;;22.30;85.70;;;;;;5032976;28;20202;-69
2022/10/01 12:19:35;;;;;;;8.70;7.53;;;22.60;79.50;;;;;;5029625;28;20203;-71
2022/10/01 12:22:07;;;;;;;8.18;7.38;;;22.90;79.00;;;;;;5020568;28;20587;-69
2022/10/01 12:24:39;;;;;;;8.63;7.72;;;22.40;77.50;;;;;;5018980;28;20234;-69
2022/10/01 12:27:26;;;;;;;7.32;6.63;;;21.70;78.80;;;;;;5026794;28;20244;-70
2022/10/01 12:30:01;;;;;;;7.65;6.93;;;21.00;81.40;;;;;;5023201;28;20214;-71
2022/10/01 12:32:38;;;;;;;8.27;7.43;;;20.40;83.20;;;;;;5021402;28;20206;-70
2022/10/01 12:35:15;;;;;;;7.78;7.00;;;20.30;88.70;;;;;;5031895;28;20198;-69
2022/10/01 12:37:56;;;;;;;8.00;7.00;;;21.50;91.40;;;;;;5037586;28;20294;-69
2022/10/01 12:40:31;;;;;;;8.18;7.38;;;22.40;81.70;;;;;;5029216;28;20242;-69
2022/10/01 12:43:17;;;;;;;7.55;6.85;;;22.20;79.00;;;;;;5026399;28;20222;-70
2022/10/01 12:45:52;;;;;;;7.72;7.03;;;21.80;86.90;;;;;;5028128;28;20302;-69
2022/10/01 12:48:26;;;;;;;7.90;7.20;;;23.20;86.30;;;;;;5022050;28;20300;-69
2022/10/01 12:51:04;;;;;;;7.10;6.40;;;24.50;77.60;;;;;;5027818;28;20202;-69